createdAt,value
2018-01-26T00:01:41.829Z,6.83
2018-01-26T00:04:09.775Z,6.87
2018-01-26T00:06:37.714Z,6.81
2018-01-26T00:09:05.673Z,6.87
2018-01-26T00:11:33.632Z,6.80
2018-01-26T00:14:01.598Z,6.78
2018-01-26T00:16:29.517Z,6.76
2018-01-26T00:18:57.466Z,6.87
2018-01-26T00:21:25.403Z,6.85
2018-01-26T00:23:53.338Z,7.04
2018-01-26T00:26:21.274Z,6.91
2018-01-26T00:28:49.242Z,6.76
2018-01-26T00:31:17.270Z,6.82
2018-01-26T00:33:45.219Z,6.90
2018-01-26T00:36:13.145Z,6.91
2018-01-26T00:38:41.097Z,7.08
2018-01-26T00:41:09.857Z,6.93
2018-01-26T00:43:37.776Z,6.87
2018-01-26T00:46:05.820Z,6.93
2018-01-26T00:48:34.345Z,6.97
2018-01-26T00:51:02.298Z,6.84
2018-01-26T00:53:30.238Z,6.82
2018-01-26T00:55:58.196Z,6.81
2018-01-26T00:58:26.206Z,6.85
2018-01-26T01:00:54.278Z,6.81
2018-01-26T01:03:22.274Z,6.72
2018-01-26T01:05:50.219Z,6.66
2018-01-26T01:08:18.209Z,6.66
2018-01-26T01:10:46.158Z,6.53
2018-01-26T01:13:14.084Z,6.66
2018-01-26T01:15:42.069Z,6.59
2018-01-26T01:18:10.031Z,6.80
2018-01-26T01:20:37.981Z,6.83
2018-01-26T01:23:05.905Z,6.61
2018-01-26T01:25:33.825Z,6.63
2018-01-26T01:28:01.786Z,6.54
2018-01-26T01:30:29.732Z,6.67
2018-01-26T01:32:57.662Z,6.72
2018-01-26T01:35:25.597Z,6.60
2018-01-26T01:37:53.522Z,6.57
2018-01-26T01:40:21.460Z,6.65
2018-01-26T01:42:49.402Z,6.68
2018-01-26T01:45:17.397Z,6.81
2018-01-26T01:47:45.383Z,6.67
2018-01-26T01:50:13.301Z,6.68
2018-01-26T01:52:41.241Z,6.68
2018-01-26T01:55:09.159Z,6.83
2018-01-26T01:57:37.127Z,6.57
2018-01-26T02:00:05.077Z,6.64
2018-01-26T02:02:33.843Z,6.76
2018-01-26T02:05:01.786Z,6.94
2018-01-26T02:07:29.729Z,6.93
2018-01-26T02:09:57.637Z,6.99
2018-01-26T02:12:25.562Z,6.89
2018-01-26T02:14:53.477Z,6.95
2018-01-26T02:17:21.430Z,7.00
2018-01-26T02:19:49.374Z,7.09
2018-01-26T02:22:17.305Z,7.09
2018-01-26T02:24:45.234Z,7.15
2018-01-26T02:27:13.640Z,7.02
2018-01-26T02:29:41.613Z,6.95
2018-01-26T02:32:09.551Z,6.93
2018-01-26T02:34:37.509Z,6.94
2018-01-26T02:37:05.437Z,6.93
2018-01-26T02:39:33.460Z,6.99
2018-01-26T02:42:01.395Z,6.87
2018-01-26T02:44:29.293Z,6.88
2018-01-26T02:46:57.230Z,6.79
2018-01-26T02:49:25.157Z,6.94
2018-01-26T02:51:53.080Z,6.88
2018-01-26T02:54:21.002Z,6.86
2018-01-26T02:56:49.007Z,6.75
2018-01-26T02:59:16.998Z,6.64
2018-01-26T03:01:44.967Z,6.58
2018-01-26T03:04:13.664Z,6.55
2018-01-26T03:06:41.609Z,6.67
2018-01-26T03:09:09.568Z,6.71
2018-01-26T03:11:37.503Z,6.72
2018-01-26T03:14:05.433Z,6.60
2018-01-26T03:16:34.049Z,6.68
2018-01-26T03:19:01.981Z,6.54
2018-01-26T03:21:29.922Z,6.61
2018-01-26T03:23:57.862Z,6.68
2018-01-26T03:26:25.921Z,6.54
2018-01-26T03:28:53.842Z,6.46
2018-01-26T03:31:21.772Z,6.51
2018-01-26T03:33:49.743Z,6.58
2018-01-26T03:36:17.980Z,6.48
2018-01-26T03:38:45.915Z,6.44
2018-01-26T03:41:13.860Z,6.60
2018-01-26T03:43:41.829Z,6.60
2018-01-26T03:46:09.752Z,6.57
2018-01-26T03:48:37.690Z,6.41
2018-01-26T03:51:05.611Z,6.34
2018-01-26T03:53:33.551Z,6.44
2018-01-26T03:56:01.501Z,6.46
2018-01-26T03:58:29.449Z,6.36
2018-01-26T04:00:57.387Z,6.35
2018-01-26T04:03:25.326Z,6.57
2018-01-26T04:05:53.258Z,6.50
2018-01-26T04:08:21.177Z,6.46
2018-01-26T04:10:49.107Z,6.53
2018-01-26T04:13:17.040Z,6.52
2018-01-26T04:15:44.980Z,6.63
2018-01-26T04:18:12.904Z,6.71
2018-01-26T04:23:15.010Z,6.66
2018-01-26T04:25:42.965Z,6.60
2018-01-26T04:28:10.917Z,6.63
2018-01-26T04:30:38.853Z,6.58
2018-01-26T04:33:06.833Z,6.69
2018-01-26T04:35:34.866Z,6.73
2018-01-26T04:38:02.801Z,6.75
2018-01-26T04:40:30.733Z,6.74
2018-01-26T04:42:58.693Z,6.81
2018-01-26T04:45:26.615Z,6.80
2018-01-26T04:47:54.559Z,6.83
2018-01-26T04:50:22.505Z,6.88
2018-01-26T04:52:50.725Z,6.97
2018-01-26T04:55:18.633Z,6.98
2018-01-26T04:57:46.698Z,7.11
2018-01-26T05:00:14.989Z,7.08
2018-01-26T05:02:43.014Z,6.96
2018-01-26T05:05:10.950Z,6.96
2018-01-26T05:07:38.905Z,6.97
2018-01-26T05:10:06.839Z,7.03
2018-01-26T05:12:34.794Z,7.02
2018-01-26T05:15:02.760Z,7.03
2018-01-26T05:17:30.885Z,7.09
2018-01-26T05:19:58.812Z,6.82
2018-01-26T05:22:26.847Z,6.70
2018-01-26T05:24:54.776Z,6.80
2018-01-26T05:27:22.740Z,6.86
2018-01-26T05:29:50.682Z,6.72
2018-01-26T05:32:18.606Z,6.81
2018-01-26T05:34:46.524Z,6.68
2018-01-26T05:37:14.645Z,6.75
2018-01-26T05:39:42.661Z,6.71
2018-01-26T05:42:10.659Z,6.50
2018-01-26T05:44:38.605Z,6.44
2018-01-26T05:47:06.530Z,6.58
2018-01-26T05:49:34.485Z,6.63
2018-01-26T05:52:02.405Z,6.67
2018-01-26T05:54:30.386Z,6.64
2018-01-26T05:56:58.313Z,6.66
2018-01-26T05:59:26.238Z,6.70
2018-01-26T06:01:54.179Z,6.84
2018-01-26T06:04:22.129Z,6.73
2018-01-26T06:06:50.049Z,6.76
2018-01-26T06:09:17.995Z,6.83
2018-01-26T06:11:45.961Z,6.79
2018-01-26T06:14:13.894Z,6.83
2018-01-26T06:16:41.928Z,6.82
2018-01-26T06:19:09.842Z,6.85
2018-01-26T06:21:37.755Z,6.83
2018-01-26T06:24:05.721Z,6.72
2018-01-26T06:26:34.351Z,6.67
2018-01-26T06:29:02.273Z,6.84
2018-01-26T06:31:30.202Z,6.80
2018-01-26T06:33:58.154Z,6.52
2018-01-26T06:36:26.063Z,6.50
2018-01-26T06:38:54.005Z,6.51
2018-01-26T06:41:22.045Z,6.53
2018-01-26T06:43:50.649Z,6.41
2018-01-26T06:46:18.577Z,6.38
2018-01-26T06:48:46.545Z,6.43
2018-01-26T06:51:14.445Z,6.38
2018-01-26T06:53:42.383Z,6.36
2018-01-26T06:56:10.322Z,6.26
2018-01-26T06:58:38.417Z,6.29
2018-01-26T07:01:06.421Z,6.37
2018-01-26T07:03:34.361Z,6.45
2018-01-26T07:06:02.301Z,6.40
2018-01-26T07:08:30.275Z,6.27
2018-01-26T07:10:58.186Z,6.09
2018-01-26T07:13:26.194Z,6.20
2018-01-26T07:15:54.130Z,6.12
2018-01-26T07:18:22.108Z,6.21
2018-01-26T07:20:50.020Z,6.19
2018-01-26T07:23:18.039Z,6.31
2018-01-26T07:25:45.985Z,6.36
2018-01-26T07:28:14.233Z,6.20
2018-01-26T07:30:42.229Z,6.21
2018-01-26T07:33:10.171Z,6.26
2018-01-26T07:35:38.139Z,6.26
2018-01-26T07:38:06.104Z,6.36
2018-01-26T07:40:34.115Z,6.43
2018-01-26T07:43:02.287Z,6.45
2018-01-26T07:45:30.223Z,6.42
2018-01-26T07:47:58.224Z,6.49
2018-01-26T07:50:26.363Z,6.59
2018-01-26T07:52:54.328Z,6.71
2018-01-26T07:55:22.305Z,6.57
2018-01-26T07:57:50.262Z,6.53
2018-01-26T08:00:18.272Z,6.57
2018-01-26T08:02:46.246Z,6.55
2018-01-26T08:05:14.185Z,6.67
2018-01-26T08:07:42.195Z,6.69
2018-01-26T08:10:10.133Z,6.73
2018-01-26T08:12:38.257Z,6.80
2018-01-26T08:15:06.055Z,6.76
2018-01-26T08:17:34.010Z,6.68
2018-01-26T08:20:02.037Z,6.75
2018-01-26T08:22:29.939Z,6.76
2018-01-26T08:24:58.050Z,6.98
2018-01-26T08:27:25.989Z,6.99
2018-01-26T08:29:53.907Z,7.15
2018-01-26T08:32:22.803Z,7.11
2018-01-26T08:34:50.736Z,7.17
2018-01-26T08:37:18.763Z,7.10
2018-01-26T08:39:46.712Z,7.08
2018-01-26T08:42:14.667Z,7.05
2018-01-26T08:44:42.595Z,7.04
2018-01-26T08:47:10.530Z,7.03
2018-01-26T08:49:38.457Z,7.01
2018-01-26T08:52:06.377Z,7.01
2018-01-26T08:54:34.321Z,7.11
2018-01-26T08:57:02.257Z,7.14
2018-01-26T08:59:30.484Z,7.23
2018-01-26T09:01:58.558Z,7.30
2018-01-26T09:04:26.496Z,7.24
2018-01-26T09:06:54.439Z,7.34
2018-01-26T09:09:22.362Z,7.39
2018-01-26T09:11:50.298Z,7.58
2018-01-26T09:14:18.237Z,7.53
2018-01-26T09:16:46.165Z,7.52
2018-01-26T09:19:14.077Z,7.55
2018-01-26T09:21:42.020Z,7.69
2018-01-26T09:24:09.946Z,7.63
2018-01-26T09:26:37.879Z,7.65
2018-01-26T09:29:05.838Z,7.68
2018-01-26T09:31:33.757Z,7.75
2018-01-26T09:34:01.744Z,7.84
2018-01-26T09:36:29.661Z,7.92
2018-01-26T09:38:57.706Z,8.05
2018-01-26T09:41:25.702Z,8.26
2018-01-26T09:43:53.624Z,8.13
2018-01-26T09:46:21.564Z,8.23
2018-01-26T09:48:49.493Z,8.32
2018-01-26T09:51:17.406Z,8.31
2018-01-26T09:53:45.360Z,8.32
2018-01-26T09:56:13.294Z,8.42
2018-01-26T09:58:41.240Z,8.50
2018-01-26T10:01:09.165Z,8.51
2018-01-26T10:03:37.100Z,8.65
2018-01-26T10:06:05.043Z,8.64
2018-01-26T10:08:32.982Z,8.62
2018-01-26T10:11:00.890Z,8.55
2018-01-26T10:13:28.822Z,8.56
2018-01-26T10:15:56.757Z,8.60
2018-01-26T10:18:24.718Z,8.62
2018-01-26T10:20:53.073Z,8.71
2018-01-26T10:23:21.012Z,8.77
2018-01-26T10:25:48.971Z,8.74
2018-01-26T10:28:16.928Z,8.83
2018-01-26T10:30:44.816Z,8.90
2018-01-26T10:33:12.758Z,8.87
2018-01-26T10:35:40.775Z,8.85
2018-01-26T10:38:08.730Z,8.92
2018-01-26T10:40:36.645Z,9.02
2018-01-26T10:43:04.593Z,9.09
2018-01-26T10:45:32.552Z,9.00
2018-01-26T10:48:00.478Z,8.90
2018-01-26T10:50:28.414Z,8.90
2018-01-26T10:52:56.334Z,8.92
2018-01-26T10:55:24.322Z,8.96
2018-01-26T10:57:52.418Z,9.19
2018-01-26T11:00:20.360Z,9.17
2018-01-26T11:02:48.310Z,9.02
2018-01-26T11:05:16.352Z,9.32
2018-01-26T11:07:44.266Z,9.48
2018-01-26T11:10:12.187Z,9.37
2018-01-26T11:12:40.132Z,9.32
2018-01-26T11:15:08.047Z,9.51
2018-01-26T11:17:35.995Z,9.57
2018-01-26T11:20:03.934Z,9.72
2018-01-26T11:22:31.862Z,9.65
2018-01-26T11:25:00.497Z,9.76
2018-01-26T11:27:28.478Z,9.72
2018-01-26T11:29:56.398Z,9.76
2018-01-26T11:32:24.351Z,9.52
2018-01-26T11:34:52.293Z,9.49
2018-01-26T11:37:20.220Z,9.41
2018-01-26T11:39:48.174Z,9.67
2018-01-26T11:42:16.085Z,9.61
2018-01-26T11:44:44.171Z,9.59
2018-01-26T11:47:12.210Z,9.31
2018-01-26T11:49:40.157Z,9.46
2018-01-26T11:52:08.079Z,9.22
2018-01-26T11:54:36.033Z,9.40
2018-01-26T11:57:03.962Z,9.40
2018-01-26T11:59:32.121Z,9.60
2018-01-26T12:02:00.084Z,9.36
2018-01-26T12:04:28.019Z,9.21
2018-01-26T12:06:55.941Z,9.27
2018-01-26T12:09:23.907Z,9.19
2018-01-26T12:11:51.862Z,9.11
2018-01-26T12:14:19.797Z,9.25
2018-01-26T12:16:47.733Z,9.18
2018-01-26T12:19:15.686Z,9.24
2018-01-26T12:21:43.842Z,9.34
2018-01-26T12:24:11.964Z,9.32
2018-01-26T12:26:39.854Z,9.01
2018-01-26T12:29:07.820Z,9.11
2018-01-26T12:31:35.765Z,9.26
2018-01-26T12:34:03.683Z,9.35
2018-01-26T12:36:31.624Z,9.20
2018-01-26T12:38:59.593Z,9.17
2018-01-26T12:41:27.517Z,9.17
2018-01-26T12:43:55.465Z,9.31
2018-01-26T12:46:23.469Z,9.44
2018-01-26T12:48:51.402Z,9.34
2018-01-26T12:51:19.343Z,9.19
2018-01-26T12:53:47.289Z,9.31
2018-01-26T12:56:15.226Z,9.20
2018-01-26T12:58:43.253Z,9.41
2018-01-26T13:01:11.178Z,9.31
2018-01-26T13:03:39.087Z,9.53
2018-01-26T13:06:07.032Z,9.36
2018-01-26T13:08:34.948Z,9.37
2018-01-26T13:11:02.878Z,9.25
2018-01-26T13:13:31.347Z,9.16
2018-01-26T13:15:59.275Z,9.15
2018-01-26T13:18:27.199Z,9.25
2018-01-26T13:20:55.144Z,9.12
2018-01-26T13:23:23.098Z,9.16
2018-01-26T13:25:51.005Z,9.20
2018-01-26T13:28:18.937Z,9.32
2018-01-26T13:30:46.988Z,9.20
2018-01-26T13:33:14.909Z,9.26
2018-01-26T13:35:42.854Z,9.32
2018-01-26T13:38:10.787Z,9.33
2018-01-26T13:40:38.775Z,9.36
2018-01-26T13:43:06.690Z,9.37
2018-01-26T13:45:34.598Z,9.22
2018-01-26T13:48:02.525Z,9.02
2018-01-26T13:50:30.458Z,9.10
2018-01-26T13:52:58.395Z,9.44
2018-01-26T13:55:26.411Z,9.60
2018-01-26T13:57:54.356Z,9.42
2018-01-26T14:00:22.354Z,9.30
2018-01-26T14:02:50.283Z,9.50
2018-01-26T14:05:18.258Z,9.44
2018-01-26T14:07:46.186Z,9.48
2018-01-26T14:10:14.125Z,9.50
2018-01-26T14:12:42.057Z,9.60
2018-01-26T14:15:10.042Z,9.59
2018-01-26T14:17:38.046Z,9.61
2018-01-26T14:20:05.985Z,9.46
2018-01-26T14:22:33.898Z,9.36
2018-01-26T14:25:01.917Z,9.10
2018-01-26T14:27:29.897Z,8.85
2018-01-26T14:29:57.874Z,8.94
2018-01-26T14:32:25.806Z,9.29
2018-01-26T14:34:53.755Z,9.25
2018-01-26T14:37:21.711Z,9.25
2018-01-26T14:39:49.669Z,9.22
2018-01-26T14:42:17.602Z,9.29
2018-01-26T14:44:45.551Z,9.08
2018-01-26T14:47:13.501Z,9.03
2018-01-26T14:49:41.458Z,9.05
2018-01-26T14:52:09.421Z,8.94
2018-01-26T14:54:37.331Z,9.14
2018-01-26T14:57:05.274Z,9.25
2018-01-26T14:59:33.227Z,9.63
2018-01-26T15:02:01.297Z,9.45
2018-01-26T15:04:29.246Z,9.14
2018-01-26T15:06:57.176Z,9.26
2018-01-26T15:09:25.103Z,9.19
2018-01-26T15:11:53.074Z,9.01
2018-01-26T15:14:20.986Z,9.16
2018-01-26T15:16:48.912Z,9.21
2018-01-26T15:19:16.841Z,9.25
2018-01-26T15:21:45.025Z,9.12
2018-01-26T15:24:12.961Z,9.35
2018-01-26T15:26:40.907Z,9.55
2018-01-26T15:29:09.687Z,9.44
2018-01-26T15:31:37.653Z,9.26
2018-01-26T15:34:05.559Z,9.32
2018-01-26T15:36:33.501Z,9.11
2018-01-26T15:39:01.457Z,8.72
2018-01-26T15:41:29.514Z,8.43
2018-01-26T15:43:57.446Z,8.29
2018-01-26T15:46:25.390Z,8.03
2018-01-26T15:48:53.350Z,7.79
2018-01-26T15:51:21.302Z,7.89
2018-01-26T15:53:49.270Z,7.78
2018-01-26T15:56:17.180Z,7.87
2018-01-26T15:58:45.115Z,8.14
2018-01-26T16:01:13.055Z,8.23
2018-01-26T16:03:41.111Z,8.21
2018-01-26T16:06:09.047Z,8.20
2018-01-26T16:08:36.985Z,8.67
2018-01-26T16:11:04.906Z,8.80
2018-01-26T16:13:32.858Z,8.92
2018-01-26T16:16:03.648Z,9.03
2018-01-26T16:18:31.726Z,8.79
2018-01-26T16:21:04.345Z,8.28
2018-01-26T16:23:32.311Z,8.22
2018-01-26T16:26:00.242Z,8.22
2018-01-26T16:28:28.186Z,8.30
2018-01-26T16:30:56.118Z,8.20
2018-01-26T16:33:24.047Z,8.17
2018-01-26T16:35:51.976Z,8.16
2018-01-26T16:38:19.918Z,8.50
2018-01-26T16:40:47.852Z,8.43
2018-01-26T16:43:15.841Z,7.90
2018-01-26T16:45:43.809Z,8.01
2018-01-26T16:48:11.755Z,7.59
2018-01-26T16:50:39.693Z,7.59
2018-01-26T16:53:07.636Z,7.54
2018-01-26T16:55:35.597Z,7.54
2018-01-26T16:58:03.575Z,7.25
2018-01-26T17:00:31.541Z,7.35
2018-01-26T17:02:59.517Z,7.35
2018-01-26T17:05:27.442Z,7.59
2018-01-26T17:07:55.385Z,7.97
2018-01-26T17:10:23.310Z,7.70
2018-01-26T17:12:51.303Z,7.54
2018-01-26T17:15:19.189Z,7.41
2018-01-26T17:17:47.154Z,7.30
2018-01-26T17:20:15.097Z,7.29
2018-01-26T17:22:43.047Z,7.26
2018-01-26T17:25:11.002Z,7.25
2018-01-26T17:27:39.083Z,7.38
2018-01-26T17:30:06.991Z,7.28
2018-01-26T17:32:35.014Z,7.31
2018-01-26T17:35:02.955Z,7.24
2018-01-26T17:37:31.013Z,7.17
2018-01-26T17:39:58.913Z,7.16
2018-01-26T17:42:26.867Z,7.67
2018-01-26T17:44:54.807Z,7.76
2018-01-26T17:47:22.726Z,7.98
2018-01-26T17:49:50.685Z,7.76
2018-01-26T17:52:18.590Z,7.58
2018-01-26T17:54:46.606Z,7.61
2018-01-26T17:57:14.523Z,7.62
2018-01-26T17:59:42.465Z,7.49
2018-01-26T18:02:10.410Z,7.56
2018-01-26T18:04:38.353Z,7.58
2018-01-26T18:07:06.307Z,7.71
2018-01-26T18:09:34.546Z,7.68
2018-01-26T18:12:02.473Z,7.69
2018-01-26T18:14:30.423Z,7.60
2018-01-26T18:16:58.358Z,7.67
2018-01-26T18:19:26.323Z,7.38
2018-01-26T18:21:55.048Z,7.11
2018-01-26T18:24:23.899Z,7.00
2018-01-26T18:26:51.836Z,6.83
2018-01-26T18:29:19.774Z,6.76
2018-01-26T18:31:48.055Z,6.72
2018-01-26T18:34:15.998Z,6.73
2018-01-26T18:36:43.941Z,6.56
2018-01-26T18:39:11.897Z,6.46
2018-01-26T18:41:39.857Z,6.58
2018-01-26T18:44:07.787Z,6.66
2018-01-26T18:46:35.742Z,6.66
2018-01-26T18:49:04.014Z,6.55
2018-01-26T18:51:33.045Z,6.40
2018-01-26T18:54:00.961Z,6.48
2018-01-26T18:56:28.925Z,6.40
2018-01-26T18:58:56.937Z,6.55
2018-01-26T19:01:24.873Z,6.52
2018-01-26T19:03:52.879Z,6.49
2018-01-26T19:06:20.808Z,6.54
2018-01-26T19:08:48.750Z,6.76
2018-01-26T19:11:16.750Z,7.17
2018-01-26T19:13:44.674Z,7.00
2018-01-26T19:16:12.594Z,7.00
2018-01-26T19:18:40.552Z,7.11
2018-01-26T19:21:08.482Z,7.29
2018-01-26T19:23:36.451Z,7.44
2018-01-26T19:26:04.422Z,7.56
2018-01-26T19:28:32.332Z,7.53
2018-01-26T19:31:00.302Z,7.52
2018-01-26T19:33:29.206Z,7.41
2018-01-26T19:35:57.113Z,7.26
2018-01-26T19:38:25.059Z,7.26
2018-01-26T19:40:53.003Z,6.97
2018-01-26T19:43:20.924Z,6.88
2018-01-26T19:45:49.326Z,6.73
2018-01-26T19:48:17.243Z,6.79
2018-01-26T19:50:45.180Z,6.73
2018-01-26T19:53:13.102Z,6.81
2018-01-26T19:55:41.849Z,6.71
2018-01-26T19:58:09.796Z,6.73
2018-01-26T20:00:37.776Z,6.75
2018-01-26T20:03:17.401Z,6.59
2018-01-26T20:05:50.944Z,6.54
2018-01-26T20:08:30.207Z,6.55
2018-01-26T20:10:58.351Z,6.56
2018-01-26T20:13:28.069Z,6.55
2018-01-26T20:15:58.637Z,6.60
2018-01-26T20:18:26.674Z,6.56
2018-01-26T20:20:54.596Z,6.53
2018-01-26T20:23:22.539Z,6.54
2018-01-26T20:25:50.453Z,6.68
2018-01-26T20:28:18.434Z,6.53
2018-01-26T20:30:46.376Z,6.50
2018-01-26T20:33:14.310Z,6.49
2018-01-26T20:35:42.258Z,6.39
2018-01-26T20:38:10.261Z,6.43
2018-01-26T20:40:38.189Z,6.54
2018-01-26T20:43:06.118Z,6.57
2018-01-26T20:45:34.133Z,6.57
2018-01-26T20:48:02.066Z,6.67
2018-01-26T20:50:30.018Z,6.73
2018-01-26T20:52:57.952Z,6.67
2018-01-26T20:55:26.283Z,6.55
2018-01-26T20:57:54.310Z,6.46
2018-01-26T21:00:22.233Z,6.51
2018-01-26T21:02:50.185Z,6.40
2018-01-26T21:05:18.150Z,6.45
2018-01-26T21:07:46.332Z,6.53
2018-01-26T21:10:15.581Z,6.57
2018-01-26T21:12:43.538Z,6.52
2018-01-26T21:15:11.539Z,6.53
2018-01-26T21:17:39.534Z,6.59
2018-01-26T21:20:07.508Z,6.48
2018-01-26T21:22:35.471Z,6.67
2018-01-26T21:25:03.413Z,6.54
2018-01-26T21:27:31.369Z,6.61
2018-01-26T21:29:59.315Z,6.45
2018-01-26T21:32:28.113Z,6.40
2018-01-26T21:34:56.103Z,6.40
2018-01-26T21:37:24.109Z,6.36
2018-01-26T21:39:52.210Z,6.41
2018-01-26T21:42:20.187Z,6.84
2018-01-26T21:44:48.118Z,7.05
2018-01-26T21:47:16.053Z,7.15
2018-01-26T21:49:44.028Z,7.39
2018-01-26T21:52:11.985Z,7.33
2018-01-26T21:54:40.040Z,7.56
2018-01-26T21:57:07.978Z,7.75
2018-01-26T21:59:35.932Z,7.50
2018-01-26T22:02:04.792Z,7.67
2018-01-26T22:04:38.394Z,7.47
2018-01-26T22:07:12.107Z,7.42
2018-01-26T22:09:40.082Z,7.45
2018-01-26T22:12:08.117Z,7.40
2018-01-26T22:14:36.135Z,7.41
2018-01-26T22:17:04.991Z,7.55
2018-01-26T22:19:33.054Z,7.46
2018-01-26T22:22:00.977Z,7.55
2018-01-26T22:24:28.885Z,7.45
2018-01-26T22:26:56.825Z,7.09
2018-01-26T22:29:24.898Z,6.99
2018-01-26T22:31:52.849Z,6.84
2018-01-26T22:34:20.969Z,6.83
2018-01-26T22:36:48.905Z,7.00
2018-01-26T22:39:16.867Z,6.83
2018-01-26T22:41:44.943Z,6.84
2018-01-26T22:44:12.898Z,6.76
2018-01-26T22:46:41.177Z,6.60
2018-01-26T22:49:09.326Z,6.56
2018-01-26T22:51:37.254Z,6.56
2018-01-26T22:54:05.235Z,6.33
2018-01-26T22:56:33.199Z,6.42
2018-01-26T22:59:01.140Z,6.39
2018-01-26T23:01:29.157Z,6.38
2018-01-26T23:03:57.146Z,6.29
2018-01-26T23:06:25.078Z,6.38
2018-01-26T23:08:53.178Z,6.42
2018-01-26T23:11:21.109Z,6.43
2018-01-26T23:13:49.063Z,6.53
2018-01-26T23:16:16.975Z,6.57
2018-01-26T23:18:44.911Z,6.50
2018-01-26T23:21:12.866Z,6.45
2018-01-26T23:23:40.818Z,6.55
2018-01-26T23:26:08.774Z,6.60
2018-01-26T23:28:36.737Z,6.69
2018-01-26T23:31:04.713Z,6.58
2018-01-26T23:33:32.760Z,6.52
2018-01-26T23:36:00.670Z,6.64
2018-01-26T23:38:28.832Z,6.58
2018-01-26T23:40:56.853Z,6.51
2018-01-26T23:43:24.800Z,6.61
2018-01-26T23:45:52.739Z,6.51
2018-01-26T23:48:20.696Z,6.57
2018-01-26T23:50:48.637Z,6.55
2018-01-26T23:53:16.712Z,6.46
2018-01-26T23:55:45.261Z,6.45
2018-01-26T23:58:13.348Z,6.49
